Time;durP1;ratioP1;P1;durP2;ratioP2;P2;SDS_P1;SDS_P2;PMS_P1;PMS_P2;Temp;Humidity;BMP_temperature;BMP_pressure;BME280_temperature;BME280_humidity;BME280_pressure;Samples;Min_cycle;Max_cycle;Signal;HPM_P1;HPM_P2
2023/01/07 00:02:01;;;;;;;5.53;4.93;;;22.20;85.40;;;;;;6247145;27;89037;-68
2023/01/07 00:05:04;;;;;;;5.82;5.32;;;22.20;85.50;;;;;;6237917;27;88546;-67
2023/01/07 00:08:06;;;;;;;5.93;5.32;;;22.20;85.50;;;;;;6251393;27;89032;-68
2023/01/07 00:11:11;;;;;;;5.80;5.30;;;22.20;85.50;;;;;;6241001;27;89326;-68
2023/01/07 00:14:14;;;;;;;6.05;5.45;;;22.10;85.40;;;;;;6241868;27;90010;-68
2023/01/07 00:17:16;;;;;;;6.13;5.32;;;22.10;85.40;;;;;;6230636;27;87944;-67
2023/01/07 00:20:18;;;;;;;5.78;5.28;;;22.10;85.40;;;;;;6242960;27;89050;-67
2023/01/07 00:23:23;;;;;;;6.00;5.50;;;22.10;85.40;;;;;;6230615;27;89122;-68
2023/01/07 00:26:29;;;;;;;5.90;5.30;;;22.10;85.30;;;;;;6239886;27;89184;-67
2023/01/07 00:29:32;;;;;;;6.13;5.53;;;22.10;85.40;;;;;;6258522;27;89118;-67
2023/01/07 00:32:53;;;;;;;6.00;5.40;;;22.10;85.30;;;;;;6255579;27;89262;-68
2023/01/07 00:36:01;;;;;;;6.30;5.70;;;22.10;85.30;;;;;;6237193;27;88406;-68
2023/01/07 00:39:05;;;;;;;5.85;5.30;;;22.10;85.20;;;;;;6247649;27;88573;-68
2023/01/07 00:45:31;;;;;;;6.32;5.72;;;22.10;85.40;;;;;;6246781;27;88172;-68
2023/01/07 00:48:33;;;;;;;6.50;5.90;;;22.10;85.30;;;;;;6244904;27;87789;-69
2023/01/07 00:51:35;;;;;;;8.15;6.57;;;22.10;85.30;;;;;;6240895;27;89091;-68
2023/01/07 00:54:37;;;;;;;7.93;6.57;;;22.00;85.70;;;;;;6248145;27;89098;-69
2023/01/07 00:57:40;;;;;;;7.88;6.60;;;22.00;85.60;;;;;;6236472;27;89426;-67
2023/01/07 01:00:43;;;;;;;7.72;6.95;;;22.00;85.60;;;;;;6242670;27;89198;-68
2023/01/07 01:03:45;;;;;;;7.95;7.15;;;22.10;85.90;;;;;;6246597;27;89065;-68
2023/01/07 01:06:47;;;;;;;8.27;6.95;;;22.00;85.70;;;;;;6249254;27;88156;-68
2023/01/07 01:09:49;;;;;;;8.35;7.30;;;22.10;85.70;;;;;;6237217;27;88994;-68
2023/01/07 01:12:53;;;;;;;9.13;7.18;;;22.10;85.50;;;;;;6250853;27;89203;-68
2023/01/07 01:15:55;;;;;;;7.65;6.85;;;22.00;85.50;;;;;;6254793;27;88879;-67
2023/01/07 01:18:57;;;;;;;7.80;7.10;;;22.00;85.90;;;;;;6243504;27;89024;-68
2023/01/07 01:21:59;;;;;;;9.00;7.70;;;22.10;85.70;;;;;;6251353;27;89083;-68
2023/01/07 01:25:01;;;;;;;7.78;7.07;;;22.00;85.90;;;;;;6248574;27;88009;-68
2023/01/07 01:28:05;;;;;;;10.05;7.25;;;22.00;86.10;;;;;;6234789;27;89080;-69
2023/01/07 01:31:08;;;;;;;7.85;6.85;;;22.00;86.40;;;;;;6252359;27;89199;-69
2023/01/07 01:34:10;;;;;;;7.70;6.80;;;22.10;86.40;;;;;;6247266;27;89071;-70
2023/01/07 01:37:12;;;;;;;8.70;7.22;;;22.00;86.70;;;;;;6251854;27;88094;-68
2023/01/07 01:40:14;;;;;;;8.45;7.47;;;22.00;87.50;;;;;;6244543;27;89159;-71
2023/01/07 01:43:34;;;;;;;39.28;16.85;;;22.00;87.80;;;;;;6249655;27;89152;-69
2023/01/07 01:46:40;;;;;;;38.10;15.40;;;22.10;88.40;;;;;;6240789;27;88952;-69
2023/01/07 01:49:46;;;;;;;40.20;16.88;;;22.10;88.00;;;;;;6244788;27;89037;-70
2023/01/07 01:52:52;;;;;;;35.58;15.63;;;22.10;87.70;;;;;;6248904;27;89111;-71
2023/01/07 01:56:00;;;;;;;31.92;15.00;;;22.10;87.60;;;;;;6243585;27;88415;-68
2023/01/07 01:59:06;;;;;;;35.22;14.65;;;22.10;87.60;;;;;;6241463;27;87980;-69
2023/01/07 02:02:09;;;;;;;24.45;12.63;;;22.00;87.90;;;;;;6251956;27;88292;-72
2023/01/07 02:05:12;;;;;;;23.77;11.63;;;22.00;88.10;;;;;;6240693;27;88959;-72
2023/01/07 02:08:20;;;;;;;22.73;11.43;;;22.00;87.90;;;;;;6248358;27;88409;-71
2023/01/07 02:11:42;;;;;;;25.58;11.82;;;22.10;87.70;;;;;;6235356;27;89338;-71
2023/01/07 02:14:59;;;;;;;22.52;11.15;;;22.00;87.70;;;;;;6243109;27;89113;-71
2023/01/07 02:18:20;;;;;;;21.05;10.65;;;22.00;87.80;;;;;;6246013;27;90957;-69
2023/01/07 02:21:41;;;;;;;21.80;10.02;;;22.00;87.80;;;;;;6247826;27;89025;-70
2023/01/07 02:25:10;;;;;;;20.02;10.30;;;22.00;88.00;;;;;;6241339;27;89139;-70
2023/01/07 02:28:42;;;;;;;19.65;10.23;;;22.00;88.20;;;;;;6249483;27;89220;-69
2023/01/07 02:32:13;;;;;;;16.13;9.90;;;22.00;88.30;;;;;;6245446;27;90146;-69
2023/01/07 02:35:29;;;;;;;17.35;10.00;;;22.00;88.20;;;;;;6241983;27;88934;-69
2023/01/07 02:38:39;;;;;;;18.95;10.07;;;21.90;88.00;;;;;;6240799;27;89179;-69
2023/01/07 02:41:51;;;;;;;18.10;9.57;;;22.00;88.00;;;;;;6252257;27;88300;-69
2023/01/07 02:45:02;;;;;;;16.67;9.45;;;22.00;88.00;;;;;;6254032;27;89070;-69
2023/01/07 02:48:08;;;;;;;17.40;9.38;;;22.00;87.90;;;;;;6250495;27;89021;-70
2023/01/07 02:51:10;;;;;;;17.00;9.38;;;22.00;88.30;;;;;;6244781;27;90075;-70
2023/01/07 02:54:15;;;;;;;14.25;9.40;;;21.90;87.70;;;;;;6241573;27;89007;-69
2023/01/07 02:57:53;;;;;;;18.55;9.25;;;21.90;87.70;;;;;;6249654;27;89104;-69
2023/01/07 03:01:30;;;;;;;14.13;9.23;;;21.90;87.70;;;;;;6254155;27;88962;-69
2023/01/07 03:04:46;;;;;;;17.67;9.80;;;21.90;87.60;;;;;;6255170;27;89466;-69
2023/01/07 03:08:08;;;;;;;16.30;9.63;;;21.90;87.60;;;;;;6252615;27;89018;-69
2023/01/07 03:11:12;;;;;;;14.57;8.98;;;21.90;87.40;;;;;;6250256;27;89137;-69
2023/01/07 03:14:19;;;;;;;14.20;8.82;;;21.90;87.30;;;;;;6255032;27;88307;-69
2023/01/07 03:17:25;;;;;;;13.70;9.10;;;21.90;87.20;;;;;;6256006;27;88040;-69
2023/01/07 03:20:30;;;;;;;14.52;8.45;;;21.90;87.20;;;;;;6251606;27;89156;-70
2023/01/07 03:23:36;;;;;;;13.68;8.68;;;21.80;87.20;;;;;;6244921;27;89661;-69
2023/01/07 03:26:43;;;;;;;13.50;8.82;;;21.80;87.10;;;;;;6236173;27;89186;-70
2023/01/07 03:29:45;;;;;;;13.80;8.85;;;21.90;87.20;;;;;;6255437;27;89301;-70
2023/01/07 03:32:52;;;;;;;13.43;9.23;;;21.80;87.10;;;;;;6237545;27;89382;-70
2023/01/07 03:35:59;;;;;;;14.00;8.65;;;21.80;87.10;;;;;;6247394;27;88734;-69
2023/01/07 03:39:02;;;;;;;15.38;8.73;;;21.80;87.10;;;;;;6255692;27;89550;-70
2023/01/07 03:45:27;;;;;;;17.15;8.95;;;21.80;86.90;;;;;;6254757;27;87556;-69
2023/01/07 03:48:29;;;;;;;10.48;7.85;;;21.80;86.80;;;;;;6244746;27;89087;-69
2023/01/07 03:51:33;;;;;;;11.60;8.18;;;21.80;86.70;;;;;;6243917;27;89455;-70
2023/01/07 03:54:35;;;;;;;13.27;7.93;;;21.80;86.70;;;;;;6252168;27;89036;-69
2023/01/07 03:57:37;;;;;;;12.77;8.35;;;21.80;86.70;;;;;;6247685;27;89432;-69
2023/01/07 04:00:39;;;;;;;11.75;8.52;;;21.80;86.70;;;;;;6241896;27;89080;-70
2023/01/07 04:03:41;;;;;;;13.43;8.73;;;21.80;86.70;;;;;;6254666;27;88955;-69
2023/01/07 04:06:45;;;;;;;11.40;8.15;;;21.70;86.70;;;;;;6245587;27;89122;-69
2023/01/07 04:09:49;;;;;;;12.73;8.55;;;21.70;86.60;;;;;;6236879;27;89107;-69
2023/01/07 04:12:51;;;;;;;11.20;7.97;;;21.70;87.50;;;;;;6255393;27;89089;-69
2023/01/07 04:15:53;;;;;;;11.02;8.23;;;21.80;86.60;;;;;;6247191;27;88244;-69
2023/01/07 04:18:55;;;;;;;10.50;8.02;;;21.80;87.40;;;;;;6255042;27;89458;-69
2023/01/07 04:21:59;;;;;;;14.25;8.48;;;21.80;86.40;;;;;;6255382;27;89056;-69
2023/01/07 04:25:01;;;;;;;12.95;8.15;;;21.80;86.40;;;;;;6249750;27;90101;-69
2023/01/07 04:28:03;;;;;;;11.65;8.23;;;21.70;86.30;;;;;;6242837;27;89093;-69
2023/01/07 04:31:05;;;;;;;11.35;7.88;;;21.80;86.20;;;;;;6253202;27;88772;-70
2023/01/07 04:34:07;;;;;;;10.20;7.65;;;21.70;86.10;;;;;;6245181;27;89018;-70
2023/01/07 04:37:11;;;;;;;9.95;7.70;;;21.70;86.10;;;;;;6242649;27;89151;-70
2023/01/07 04:40:13;;;;;;;11.43;8.27;;;21.70;86.00;;;;;;6242162;27;89011;-69
2023/01/07 04:43:15;;;;;;;11.43;7.85;;;21.70;85.90;;;;;;6251238;27;89048;-69
2023/01/07 04:46:17;;;;;;;9.32;7.90;;;21.70;85.90;;;;;;6240891;27;88333;-69
2023/01/07 04:49:19;;;;;;;9.73;6.97;;;21.70;85.80;;;;;;6254925;27;89340;-69
2023/01/07 04:52:22;;;;;;;9.90;8.27;;;21.80;85.80;;;;;;6243251;27;89130;-69
2023/01/07 04:55:24;;;;;;;9.32;7.57;;;21.80;85.70;;;;;;6253468;27;90011;-70
2023/01/07 04:58:26;;;;;;;9.43;7.28;;;21.80;85.70;;;;;;6249761;27;89169;-70
2023/01/07 05:01:29;;;;;;;8.77;7.60;;;21.80;85.60;;;;;;6255429;27;89055;-70
2023/01/07 05:04:31;;;;;;;10.27;7.63;;;21.80;85.50;;;;;;6262681;27;89290;-69
2023/01/07 05:07:35;;;;;;;8.95;6.85;;;21.80;85.50;;;;;;6235491;27;89083;-69
2023/01/07 05:10:37;;;;;;;9.25;7.68;;;21.80;85.50;;;;;;6250938;27;88295;-69
2023/01/07 05:13:39;;;;;;;8.77;7.15;;;21.90;85.40;;;;;;6241386;27;89086;-70
2023/01/07 05:16:41;;;;;;;8.88;7.38;;;21.90;85.40;;;;;;6248227;27;88115;-69
2023/01/07 05:19:43;;;;;;;8.93;7.32;;;21.90;85.40;;;;;;6258877;27;87862;-70
2023/01/07 05:22:46;;;;;;;7.95;7.13;;;21.90;85.30;;;;;;6258361;27;89323;-69
2023/01/07 05:25:48;;;;;;;8.43;7.38;;;21.90;85.20;;;;;;6257499;27;90629;-69
2023/01/07 05:28:50;;;;;;;9.15;7.07;;;21.90;86.10;;;;;;6262428;27;88001;-69
2023/01/07 05:31:53;;;;;;;8.60;6.93;;;21.90;85.20;;;;;;6251226;27;89022;-69
2023/01/07 05:34:55;;;;;;;9.05;7.22;;;21.90;85.10;;;;;;6250518;27;89072;-70
2023/01/07 05:37:58;;;;;;;7.95;6.93;;;21.90;85.00;;;;;;6256748;27;89111;-69
2023/01/07 05:41:00;;;;;;;8.77;7.20;;;21.90;85.00;;;;;;6257431;27;89155;-70
2023/01/07 05:44:02;;;;;;;9.73;7.30;;;21.90;85.00;;;;;;6245894;27;89061;-69
2023/01/07 05:47:04;;;;;;;8.38;6.78;;;21.90;85.00;;;;;;6257449;27;88324;-70
2023/01/07 05:50:07;;;;;;;8.15;6.93;;;21.90;85.00;;;;;;6257995;27;89030;-69
2023/01/07 05:53:10;;;;;;;8.57;6.60;;;21.90;85.00;;;;;;6258092;27;89127;-69
2023/01/07 05:56:12;;;;;;;9.55;6.72;;;21.90;85.00;;;;;;6243980;27;88889;-69
2023/01/07 05:59:15;;;;;;;8.10;6.93;;;21.90;85.00;;;;;;6255206;27;89122;-70
2023/01/07 06:02:17;;;;;;;7.85;6.53;;;21.90;85.00;;;;;;6242637;27;89114;-69
2023/01/07 06:05:19;;;;;;;8.20;6.60;;;21.90;85.00;;;;;;6257433;27;89013;-69
2023/01/07 06:08:22;;;;;;;9.02;6.68;;;21.90;85.00;;;;;;6240487;27;89053;-70
2023/01/07 06:11:25;;;;;;;7.95;6.60;;;21.90;85.00;;;;;;6247948;27;89457;-69
2023/01/07 06:14:27;;;;;;;9.95;6.63;;;21.90;85.00;;;;;;6257846;27;90192;-70
2023/01/07 06:17:29;;;;;;;8.00;6.70;;;21.90;85.80;;;;;;6244897;27;88761;-70
2023/01/07 06:20:33;;;;;;;6.78;6.10;;;21.90;85.00;;;;;;6250036;27;89033;-69
2023/01/07 06:23:37;;;;;;;7.15;6.40;;;21.90;84.90;;;;;;6245421;27;88910;-69
2023/01/07 06:26:39;;;;;;;7.75;6.47;;;21.90;84.90;;;;;;6249476;27;90033;-69
2023/01/07 06:29:41;;;;;;;6.80;5.93;;;21.90;84.90;;;;;;6257318;27;89063;-69
2023/01/07 06:32:45;;;;;;;8.57;6.35;;;21.90;84.90;;;;;;6256105;27;89011;-70
2023/01/07 06:35:47;;;;;;;7.00;6.07;;;21.90;84.90;;;;;;6242753;27;89110;-70
2023/01/07 06:38:50;;;;;;;7.40;6.25;;;21.90;84.90;;;;;;6255779;27;89251;-70
2023/01/07 06:41:52;;;;;;;7.25;6.20;;;21.90;84.80;;;;;;6257829;27;89119;-70
2023/01/07 06:44:55;;;;;;;6.63;5.85;;;21.90;84.80;;;;;;6246219;27;89499;-70
2023/01/07 06:47:57;;;;;;;6.65;5.95;;;21.90;84.80;;;;;;6240505;27;88200;-70
2023/01/07 06:50:59;;;;;;;6.13;5.53;;;21.90;84.80;;;;;;6240198;27;88876;-70
2023/01/07 06:54:03;;;;;;;6.68;5.90;;;22.00;84.80;;;;;;6243016;27;89526;-69
2023/01/07 06:57:05;;;;;;;6.93;5.60;;;21.90;84.70;;;;;;6255288;27;90304;-70
2023/01/07 07:00:08;;;;;;;6.75;5.75;;;21.90;84.70;;;;;;6257840;27;89134;-70
2023/01/07 07:03:10;;;;;;;6.65;5.90;;;22.00;84.70;;;;;;6233364;27;88293;-70
2023/01/07 07:06:12;;;;;;;6.22;5.60;;;22.00;84.70;;;;;;6237868;27;89077;-70
2023/01/07 07:09:16;;;;;;;6.82;5.72;;;22.00;84.50;;;;;;6255521;27;89488;-70
2023/01/07 07:12:18;;;;;;;6.03;5.43;;;22.00;84.50;;;;;;6251767;27;89149;-70
2023/01/07 07:15:20;;;;;;;6.60;5.32;;;22.00;84.40;;;;;;6247034;27;89037;-69
2023/01/07 07:18:22;;;;;;;6.80;5.68;;;22.00;84.40;;;;;;6250605;27;86985;-70
2023/01/07 07:21:24;;;;;;;6.32;5.47;;;22.00;84.40;;;;;;6244638;27;89111;-67
2023/01/07 07:24:28;;;;;;;6.57;5.57;;;22.00;84.30;;;;;;6236454;27;89149;-68
2023/01/07 07:27:30;;;;;;;6.35;5.60;;;22.00;84.20;;;;;;6240913;27;90092;-68
2023/01/07 07:30:32;;;;;;;6.22;4.53;;;22.10;84.20;;;;;;6241592;27;89116;-68
2023/01/07 07:33:34;;;;;;;6.32;5.35;;;22.10;84.20;;;;;;6241405;27;89116;-68
2023/01/07 07:36:37;;;;;;;6.25;5.65;;;22.10;84.10;;;;;;6238621;27;89087;-68
2023/01/07 07:39:40;;;;;;;5.80;5.13;;;22.10;84.20;;;;;;6243914;27;89026;-69
2023/01/07 07:42:42;;;;;;;6.05;5.00;;;22.10;84.00;;;;;;6240049;27;89119;-67
2023/01/07 07:45:44;;;;;;;8.10;5.50;;;22.10;84.00;;;;;;6240017;27;89042;-69
2023/01/07 07:48:49;;;;;;;7.05;5.20;;;22.10;84.00;;;;;;6242422;27;88625;-68
2023/01/07 07:51:51;;;;;;;5.43;4.88;;;22.10;84.00;;;;;;6235578;27;88188;-68
2023/01/07 07:54:54;;;;;;;5.68;4.90;;;22.10;84.00;;;;;;6237623;27;88105;-68
2023/01/07 07:57:58;;;;;;;5.63;5.03;;;22.10;83.90;;;;;;6242355;27;89953;-68
2023/01/07 08:01:00;;;;;;;5.40;4.90;;;22.10;83.90;;;;;;6243755;27;88991;-69
2023/01/07 08:04:02;;;;;;;7.05;5.43;;;22.10;83.90;;;;;;6238683;27;89143;-68
2023/01/07 08:07:04;;;;;;;5.75;4.88;;;22.20;83.90;;;;;;6241977;27;88965;-68
2023/01/07 08:10:09;;;;;;;5.93;5.10;;;22.20;83.90;;;;;;6241378;27;89132;-69
2023/01/07 08:13:11;;;;;;;6.45;5.18;;;22.20;83.80;;;;;;6237330;27;88987;-68
2023/01/07 08:16:13;;;;;;;5.65;4.80;;;22.20;83.80;;;;;;6238627;27;89598;-68
2023/01/07 08:19:15;;;;;;;6.15;5.07;;;22.20;83.80;;;;;;6232497;27;88085;-68
2023/01/07 08:22:17;;;;;;;7.75;5.63;;;22.20;84.00;;;;;;6255548;27;89046;-67
2023/01/07 08:25:20;;;;;;;7.05;5.18;;;22.30;86.80;;;;;;6246131;27;89134;-67
2023/01/07 08:28:22;;;;;;;5.55;4.95;;;22.30;86.20;;;;;;6249221;27;90123;-68
2023/01/07 08:31:25;;;;;;;7.03;5.10;;;22.30;90.00;;;;;;6245487;27;88244;-69
2023/01/07 08:34:27;;;;;;;5.70;4.93;;;22.40;86.60;;;;;;6252762;27;89009;-70
2023/01/07 08:37:30;;;;;;;7.32;5.40;;;22.40;86.20;;;;;;6248150;27;89018;-69
2023/01/07 08:40:34;;;;;;;7.32;5.43;;;22.40;85.90;;;;;;6253467;27;89756;-71
2023/01/07 08:43:36;;;;;;;10.55;5.63;;;22.40;86.00;;;;;;6242156;27;89076;-69
2023/01/07 08:46:40;;;;;;;12.07;6.03;;;22.40;86.60;;;;;;6241550;27;89015;-70
2023/01/07 08:49:42;;;;;;;12.27;6.30;;;22.40;86.50;;;;;;6255194;27;88285;-70
2023/01/07 08:52:46;;;;;;;11.95;6.40;;;22.40;86.60;;;;;;6246024;27;89440;-70
2023/01/07 08:55:49;;;;;;;15.38;7.05;;;22.50;87.00;;;;;;6242874;27;88894;-70
2023/01/07 08:58:51;;;;;;;13.32;6.53;;;22.50;87.10;;;;;;6241144;27;88809;-70
2023/01/07 09:01:53;;;;;;;11.43;6.43;;;22.50;87.50;;;;;;6247819;27;89207;-70
2023/01/07 09:04:55;;;;;;;11.80;6.22;;;22.50;88.00;;;;;;6257668;27;89825;-70
2023/01/07 09:07:57;;;;;;;10.90;6.05;;;22.50;87.80;;;;;;6257975;27;89547;-69
2023/01/07 09:11:01;;;;;;;12.82;6.53;;;22.50;87.70;;;;;;6251619;27;88871;-70
2023/01/07 09:14:03;;;;;;;23.10;8.75;;;22.50;88.10;;;;;;6253736;27;89132;-67
2023/01/07 09:17:05;;;;;;;26.23;9.25;;;22.50;89.60;;;;;;6258284;27;89120;-68
2023/01/07 09:20:09;;;;;;;19.67;7.35;;;22.50;89.80;;;;;;6253458;27;88366;-70
2023/01/07 09:23:11;;;;;;;22.33;9.73;;;22.50;88.60;;;;;;6257477;27;89343;-68
2023/01/07 09:26:14;;;;;;;17.27;7.32;;;22.60;89.40;;;;;;6252302;27;87965;-69
2023/01/07 09:29:17;;;;;;;17.38;7.75;;;22.60;89.40;;;;;;6250498;27;89786;-69
2023/01/07 09:32:19;;;;;;;16.92;7.60;;;22.60;89.30;;;;;;6242342;27;89041;-69
2023/01/07 09:35:22;;;;;;;16.48;7.40;;;22.60;90.10;;;;;;6235917;27;88262;-69
2023/01/07 09:38:24;;;;;;;15.43;7.38;;;22.60;89.70;;;;;;6255648;27;88710;-70
2023/01/07 09:41:37;;;;;;;14.32;6.90;;;22.60;89.20;;;;;;6238508;27;89095;-70
2023/01/07 09:44:57;;;;;;;14.38;6.80;;;22.60;90.40;;;;;;6245196;27;89118;-70
2023/01/07 09:48:03;;;;;;;12.63;6.65;;;22.60;90.20;;;;;;6237789;27;89164;-70
2023/01/07 09:51:08;;;;;;;13.23;6.80;;;22.60;90.00;;;;;;6237195;27;88373;-70
2023/01/07 09:54:20;;;;;;;12.35;6.78;;;22.60;89.10;;;;;;6244152;27;89379;-70
2023/01/07 09:57:25;;;;;;;13.90;6.63;;;22.70;97.50;;;;;;6236687;27;89439;-69
2023/01/07 10:00:28;;;;;;;12.70;6.68;;;22.90;95.40;;;;;;6235900;27;89947;-70
2023/01/07 10:03:57;;;;;;;12.25;6.45;;;23.00;94.10;;;;;;6243192;27;88856;-70
2023/01/07 10:07:11;;;;;;;11.15;5.75;;;23.10;93.10;;;;;;6245647;27;87639;-69
2023/01/07 10:10:18;;;;;;;10.38;5.82;;;23.20;92.30;;;;;;6258056;27;88823;-69
2023/01/07 10:13:42;;;;;;;11.50;6.10;;;23.30;91.70;;;;;;6252091;27;89068;-70
2023/01/07 10:16:51;;;;;;;9.50;5.50;;;23.30;91.50;;;;;;6255059;27;89287;-69
2023/01/07 10:20:00;;;;;;;12.15;6.10;;;23.30;91.10;;;;;;6251288;27;88982;-70
2023/01/07 10:23:07;;;;;;;9.63;5.43;;;23.30;90.90;;;;;;6257429;27;89571;-68
2023/01/07 10:26:18;;;;;;;8.23;5.22;;;23.30;90.60;;;;;;6247762;27;88952;-70
2023/01/07 10:29:32;;;;;;;14.43;6.00;;;23.30;90.40;;;;;;6246180;27;89347;-69
2023/01/07 10:32:36;;;;;;;11.02;5.43;;;23.30;90.40;;;;;;6240618;27;89847;-70
2023/01/07 10:35:40;;;;;;;11.13;5.07;;;23.20;90.40;;;;;;6239012;27;88032;-70
2023/01/07 10:38:44;;;;;;;12.02;5.40;;;23.20;90.60;;;;;;6235564;27;89158;-70
2023/01/07 10:41:58;;;;;;;13.57;5.10;;;23.20;90.60;;;;;;6242009;27;89095;-71
2023/01/07 10:45:38;;;;;;;9.82;5.03;;;23.20;90.50;;;;;;6238881;27;90546;-70
2023/01/07 10:48:59;;;;;;;8.57;5.07;;;23.30;90.70;;;;;;6230059;27;89224;-71
2023/01/07 10:52:17;;;;;;;8.60;4.70;;;23.20;90.60;;;;;;6244970;27;89589;-70
2023/01/07 10:55:31;;;;;;;7.53;4.45;;;23.20;90.80;;;;;;6243229;27;88544;-70
2023/01/07 10:58:38;;;;;;;11.23;4.60;;;23.20;90.90;;;;;;6241054;27;89021;-70
2023/01/07 11:01:46;;;;;;;9.45;4.82;;;23.10;90.80;;;;;;6236154;27;89120;-70
2023/01/07 11:04:48;;;;;;;11.20;5.18;;;23.20;90.80;;;;;;6242946;27;90043;-69
2023/01/07 11:07:53;;;;;;;11.77;5.60;;;23.10;91.20;;;;;;6243753;27;89552;-68
2023/01/07 11:10:56;;;;;;;10.88;5.25;;;23.10;91.40;;;;;;6244330;27;89130;-71
2023/01/07 11:14:03;;;;;;;14.38;5.35;;;23.10;91.60;;;;;;6251434;27;89120;-71
2023/01/07 11:17:10;;;;;;;11.60;5.60;;;23.10;91.50;;;;;;6247240;27;89426;-71
2023/01/07 11:20:12;;;;;;;11.18;5.78;;;23.10;91.50;;;;;;6252472;27;88941;-72
2023/01/07 11:23:19;;;;;;;10.68;5.28;;;23.10;91.50;;;;;;6250146;27;88972;-71
2023/01/07 11:26:26;;;;;;;13.77;5.50;;;23.10;91.50;;;;;;6251205;27;88506;-74
2023/01/07 11:29:39;;;;;;;12.02;5.30;;;23.10;91.40;;;;;;6245871;27;88005;-73
2023/01/07 11:32:49;;;;;;;8.25;4.97;;;23.10;91.40;;;;;;6249145;27;89468;-70
2023/01/07 11:35:52;;;;;;;11.50;5.47;;;23.10;91.40;;;;;;6236112;27;90207;-69
2023/01/07 11:39:09;;;;;;;10.75;5.25;;;23.10;91.60;;;;;;6238142;27;89044;-71
2023/01/07 11:45:50;;;;;;;13.52;5.47;;;23.10;91.60;;;;;;6245805;27;89009;-75
2023/01/07 11:48:56;;;;;;;27.05;11.30;;;23.10;92.10;;;;;;6251673;27;89011;-73
2023/01/07 11:51:59;;;;;;;28.77;13.57;;;23.10;92.00;;;;;;6248640;27;89129;-74
2023/01/07 11:55:01;;;;;;;27.77;10.48;;;23.10;92.00;;;;;;6243054;27;89267;-72
2023/01/07 11:58:05;;;;;;;23.20;9.57;;;23.00;91.80;;;;;;6246978;27;87989;-74
2023/01/07 12:01:17;;;;;;;21.55;9.07;;;23.10;91.70;;;;;;6250051;27;89333;-76
2023/01/07 12:04:23;;;;;;;22.33;8.75;;;23.10;91.70;;;;;;6248682;27;89191;-76
2023/01/07 12:07:26;;;;;;;16.05;7.60;;;23.00;91.60;;;;;;6249639;27;90121;-72
2023/01/07 12:10:33;;;;;;;17.85;7.45;;;23.10;91.60;;;;;;6248981;27;89010;-71
2023/01/07 12:13:38;;;;;;;19.30;7.97;;;23.10;91.60;;;;;;6244108;27;89185;-73
2023/01/07 12:16:40;;;;;;;19.65;7.38;;;23.00;91.70;;;;;;6247460;27;89462;-70
2023/01/07 12:20:20;;;;;;;16.90;7.47;;;23.00;91.80;;;;;;6247470;27;89676;-70
2023/01/07 12:23:31;;;;;;;18.58;7.30;;;23.10;91.70;;;;;;6251523;27;89092;-72
2023/01/07 12:26:41;;;;;;;18.35;7.22;;;23.00;91.80;;;;;;6250694;27;89150;-72
2023/01/07 12:29:57;;;;;;;14.52;6.50;;;23.00;91.90;;;;;;6257580;27;87241;-73
2023/01/07 12:33:11;;;;;;;13.00;6.43;;;23.00;91.80;;;;;;6260997;27;89376;-72
2023/01/07 12:36:20;;;;;;;16.08;6.68;;;23.10;91.80;;;;;;6249263;27;89083;-73
2023/01/07 12:39:26;;;;;;;17.05;6.72;;;23.00;91.70;;;;;;6252008;27;90336;-73
2023/01/07 12:42:32;;;;;;;13.35;6.63;;;23.00;91.70;;;;;;6250096;27;89345;-72
2023/01/07 12:45:40;;;;;;;14.48;6.68;;;23.00;91.70;;;;;;6236430;27;90215;-73
2023/01/07 12:48:49;;;;;;;16.70;6.43;;;23.00;91.60;;;;;;6255519;27;89477;-73
2023/01/07 12:51:58;;;;;;;12.80;6.30;;;23.00;91.50;;;;;;6259182;27;89008;-74
2023/01/07 12:55:03;;;;;;;14.07;6.05;;;23.00;91.50;;;;;;6256322;27;89083;-72
2023/01/07 12:58:15;;;;;;;11.38;5.88;;;23.00;91.50;;;;;;6250896;27;89106;-73
2023/01/07 13:01:27;;;;;;;13.02;5.80;;;23.10;91.40;;;;;;6242937;27;88348;-72
2023/01/07 13:04:40;;;;;;;12.02;5.65;;;23.00;91.30;;;;;;6258529;27;88893;-72
2023/01/07 13:07:52;;;;;;;13.20;5.55;;;23.00;91.30;;;;;;6255294;27;89210;-73
2023/01/07 13:10:59;;;;;;;12.45;5.50;;;23.00;91.30;;;;;;6258485;27;90464;-73
2023/01/07 13:14:01;;;;;;;10.98;5.18;;;23.00;91.30;;;;;;6256997;27;89159;-72
2023/01/07 13:17:21;;;;;;;8.73;5.50;;;23.00;91.30;;;;;;6239430;27;88915;-72
2023/01/07 13:20:48;;;;;;;10.23;5.22;;;23.00;91.30;;;;;;6246449;27;89157;-72
2023/01/07 13:24:10;;;;;;;11.25;5.25;;;23.00;91.20;;;;;;6240808;27;89058;-73
2023/01/07 13:27:21;;;;;;;9.88;5.03;;;23.00;91.20;;;;;;6258555;27;89157;-71
2023/01/07 13:30:30;;;;;;;10.98;5.55;;;23.00;91.20;;;;;;6256128;27;89221;-73
2023/01/07 13:33:42;;;;;;;10.80;4.93;;;23.00;91.10;;;;;;6257738;27;88419;-72
2023/01/07 13:36:55;;;;;;;12.15;5.45;;;22.90;91.10;;;;;;6257762;27;89251;-73
2023/01/07 13:40:21;;;;;;;8.65;4.70;;;22.90;91.00;;;;;;6255254;27;89234;-72
2023/01/07 13:43:36;;;;;;;9.38;4.78;;;23.00;90.90;;;;;;6257793;27;90019;-73
2023/01/07 13:46:42;;;;;;;7.50;4.25;;;22.90;90.90;;;;;;6257876;27;89077;-73
2023/01/07 13:49:44;;;;;;;9.48;4.72;;;23.00;90.80;;;;;;6244849;27;89076;-73
2023/01/07 13:52:57;;;;;;;10.02;5.18;;;22.90;90.80;;;;;;6254503;27;89093;-73
2023/01/07 13:56:28;;;;;;;7.00;4.22;;;22.90;90.80;;;;;;6253494;27;89122;-73
2023/01/07 13:59:48;;;;;;;7.55;4.10;;;22.90;90.70;;;;;;6247996;27;89172;-73
2023/01/07 14:02:55;;;;;;;8.13;4.38;;;22.90;90.60;;;;;;6247965;27;89111;-72
2023/01/07 14:06:42;;;;;;;7.90;4.22;;;22.90;90.60;;;;;;6254822;27;88866;-72
2023/01/07 14:09:45;;;;;;;9.32;4.65;;;22.90;90.50;;;;;;6246532;27;89116;-72
2023/01/07 14:13:12;;;;;;;8.05;3.88;;;22.90;90.40;;;;;;6255444;27;88304;-73
2023/01/07 14:16:21;;;;;;;6.70;3.75;;;22.90;90.40;;;;;;6234780;27;90032;-72
2023/01/07 14:19:31;;;;;;;6.07;3.78;;;22.90;90.40;;;;;;6255860;27;89008;-73
2023/01/07 14:22:43;;;;;;;8.05;4.35;;;22.90;90.30;;;;;;6257985;27;89566;-72
2023/01/07 14:26:05;;;;;;;5.85;3.50;;;22.90;90.30;;;;;;6257805;27;89133;-73
2023/01/07 14:29:25;;;;;;;7.75;4.10;;;22.90;90.30;;;;;;6242736;27;89118;-73
2023/01/07 14:32:32;;;;;;;7.13;3.92;;;22.90;90.30;;;;;;6246676;27;89393;-72
2023/01/07 14:35:36;;;;;;;5.25;3.53;;;22.90;90.30;;;;;;6233841;27;89474;-72
2023/01/07 14:39:23;;;;;;;5.85;3.85;;;22.90;90.20;;;;;;6254044;27;88649;-73
2023/01/07 14:42:41;;;;;;;6.15;3.95;;;22.90;90.20;;;;;;6244761;27;89152;-73
2023/01/07 14:45:54;;;;;;;7.55;3.63;;;22.90;90.20;;;;;;6237185;27;89121;-73
2023/01/07 14:49:20;;;;;;;5.18;3.30;;;22.90;90.10;;;;;;6237159;27;90080;-73
2023/01/07 14:52:57;;;;;;;5.68;3.75;;;22.90;90.10;;;;;;6240303;27;88767;-73
2023/01/07 14:56:16;;;;;;;5.47;3.47;;;22.90;90.10;;;;;;6245322;27;89410;-73
2023/01/07 14:59:38;;;;;;;5.20;3.22;;;22.90;90.00;;;;;;6248673;27;88980;-73
2023/01/07 15:03:15;;;;;;;6.85;4.03;;;22.90;90.00;;;;;;6255170;27;89210;-73
2023/01/07 15:06:30;;;;;;;5.43;3.53;;;22.90;90.00;;;;;;6252658;27;89082;-73
2023/01/07 15:16:22;;;;;;;6.10;3.50;;;22.80;89.90;;;;;;6232521;27;87170;-73
2023/01/07 15:19:24;;;;;;;7.65;3.00;;;22.90;89.80;;;;;;6244391;27;87935;-72
2023/01/07 15:22:46;;;;;;;5.32;3.38;;;22.80;89.70;;;;;;6253155;27;90225;-72
2023/01/07 15:25:56;;;;;;;6.30;3.45;;;22.90;89.70;;;;;;6242069;27;89108;-73
2023/01/07 15:29:05;;;;;;;6.13;3.42;;;22.90;89.70;;;;;;6255520;27;89121;-72
2023/01/07 15:32:16;;;;;;;4.57;3.17;;;22.90;89.60;;;;;;6248017;27;88882;-73
2023/01/07 15:35:21;;;;;;;4.93;2.97;;;22.90;90.20;;;;;;6238978;27;88004;-73
2023/01/07 15:38:28;;;;;;;3.53;2.70;;;22.90;89.40;;;;;;6255928;28;89033;-72
2023/01/07 15:41:33;;;;;;;3.55;2.67;;;22.80;89.40;;;;;;6255934;28;89099;-72
2023/01/07 15:44:38;;;;;;;4.75;2.85;;;22.90;89.40;;;;;;6242884;27;88482;-73
2023/01/07 15:47:42;;;;;;;3.97;2.97;;;22.80;89.30;;;;;;6248831;27;89069;-71
2023/01/07 15:50:45;;;;;;;3.58;2.67;;;22.80;89.20;;;;;;6253989;27;89223;-72
2023/01/07 15:53:55;;;;;;;4.07;3.20;;;22.90;89.30;;;;;;6245136;27;90023;-72
2023/01/07 15:57:00;;;;;;;3.95;3.00;;;22.90;89.30;;;;;;6233110;27;89170;-72
2023/01/07 16:00:02;;;;;;;4.95;3.03;;;22.80;89.10;;;;;;6244215;27;89121;-73
2023/01/07 16:03:05;;;;;;;4.18;3.05;;;22.80;89.10;;;;;;6256118;27;89148;-72
2023/01/07 16:06:32;;;;;;;4.70;2.90;;;22.80;89.00;;;;;;6259415;27;89093;-72
2023/01/07 16:09:35;;;;;;;4.40;2.72;;;22.80;88.90;;;;;;6242781;27;89001;-72
2023/01/07 16:12:39;;;;;;;4.25;2.58;;;22.80;89.80;;;;;;6242531;27;88211;-71
2023/01/07 16:15:41;;;;;;;4.13;2.80;;;22.80;88.80;;;;;;6247888;27;88240;-73
2023/01/07 16:18:53;;;;;;;4.22;2.88;;;22.80;88.80;;;;;;6244103;27;89336;-70
2023/01/07 16:21:59;;;;;;;4.38;2.60;;;22.80;88.80;;;;;;6246750;27;88011;-71
2023/01/07 16:25:10;;;;;;;5.30;2.92;;;22.80;88.60;;;;;;6248060;27;90089;-72